createdAt,value
2022-10-02T00:00:27.624Z,50.877148
2022-10-02T00:01:27.659Z,50.877148
2022-10-02T00:02:27.596Z,50.877155
2022-10-02T00:03:27.584Z,50.877163
2022-10-02T00:04:27.566Z,50.877163
2022-10-02T00:05:27.574Z,50.877182
2022-10-02T00:06:27.578Z,50.877174
2022-10-02T00:07:27.542Z,50.877174
2022-10-02T00:08:27.529Z,50.877182
2022-10-02T00:09:27.524Z,50.877193
2022-10-02T00:10:27.522Z,50.877190
2022-10-02T00:11:27.517Z,50.877182
2022-10-02T00:12:27.523Z,50.877186
2022-10-02T00:13:27.507Z,50.877190
2022-10-02T00:14:27.482Z,50.877201
2022-10-02T00:15:27.463Z,50.877178
2022-10-02T00:16:27.499Z,50.877178
2022-10-02T00:17:27.460Z,50.877178
2022-10-02T00:18:27.468Z,50.877190
2022-10-02T00:19:27.462Z,50.877190
2022-10-02T00:20:27.418Z,50.877186
2022-10-02T00:21:27.397Z,50.877178
2022-10-02T00:22:27.406Z,50.877193
2022-10-02T00:23:27.389Z,50.877186
2022-10-02T00:24:27.434Z,50.877197
2022-10-02T00:25:27.379Z,50.877190
2022-10-02T00:26:27.353Z,50.877205
2022-10-02T00:27:27.341Z,50.877193
2022-10-02T00:28:27.408Z,50.877216
2022-10-02T00:29:27.318Z,50.877197
2022-10-02T00:30:27.331Z,50.877213
2022-10-02T00:31:27.381Z,50.877182
2022-10-02T00:32:27.300Z,50.877213
2022-10-02T00:33:27.290Z,50.877201
2022-10-02T00:34:27.281Z,50.877205
2022-10-02T00:35:27.273Z,50.877209
2022-10-02T00:36:27.276Z,50.877216
2022-10-02T00:37:27.246Z,50.877216
2022-10-02T00:38:27.237Z,50.877209
2022-10-02T00:39:27.218Z,50.877209
2022-10-02T00:40:27.213Z,50.877167
2022-10-02T00:41:28.208Z,50.877209
2022-10-02T00:42:27.188Z,50.877201
2022-10-02T00:43:27.201Z,50.877213
2022-10-02T00:44:27.169Z,50.877151
2022-10-02T00:45:27.249Z,50.877171
2022-10-02T00:46:27.173Z,50.877163
2022-10-02T00:47:27.159Z,50.877159
2022-10-02T00:48:27.130Z,50.877163
2022-10-02T00:49:27.137Z,50.877190
2022-10-02T00:50:27.118Z,50.877129
2022-10-02T00:51:27.108Z,50.877182
2022-10-02T00:52:27.129Z,50.877190
2022-10-02T00:53:27.074Z,50.877251
2022-10-02T00:54:27.077Z,50.877220
2022-10-02T00:55:27.067Z,50.877186
2022-10-02T00:56:27.054Z,50.877209
2022-10-02T00:57:27.057Z,50.877197
2022-10-02T00:58:27.040Z,50.877193
2022-10-02T00:59:27.028Z,50.877193
2022-10-02T01:00:27.031Z,50.877190
2022-10-02T01:01:27.071Z,50.877193
2022-10-02T01:02:27.035Z,50.877228
2022-10-02T01:03:27.014Z,50.877182
2022-10-02T01:04:26.981Z,50.877155
2022-10-02T01:05:26.965Z,50.877174
2022-10-02T01:06:26.951Z,50.877197
2022-10-02T01:07:26.953Z,50.877193
2022-10-02T01:08:26.945Z,50.877193
2022-10-02T01:09:26.925Z,50.877205
2022-10-02T01:10:26.926Z,50.877197
2022-10-02T01:11:26.913Z,50.877186
2022-10-02T01:12:26.915Z,50.877186
2022-10-02T01:13:26.899Z,50.877190
2022-10-02T01:14:26.874Z,50.877178
2022-10-02T01:15:26.866Z,50.877197
2022-10-02T01:16:26.962Z,50.877190
2022-10-02T01:17:26.861Z,50.877193
2022-10-02T01:18:26.839Z,50.877197
2022-10-02T01:19:26.826Z,50.877190
2022-10-02T01:20:26.811Z,50.877171
2022-10-02T01:21:26.800Z,50.877159
2022-10-02T01:22:26.811Z,50.877193
2022-10-02T01:23:26.804Z,50.877201
2022-10-02T01:24:26.779Z,50.877190
2022-10-02T01:25:26.778Z,50.877193
2022-10-02T01:26:26.763Z,50.877174
2022-10-02T01:27:26.748Z,50.877178
2022-10-02T01:28:26.838Z,50.877171
2022-10-02T01:29:26.723Z,50.877174
2022-10-02T01:30:26.720Z,50.877193
2022-10-02T01:31:26.758Z,50.877201
2022-10-02T01:32:26.706Z,50.877174
2022-10-02T01:33:26.692Z,50.877148
2022-10-02T01:34:26.700Z,50.877155
2022-10-02T01:35:26.665Z,50.877163
2022-10-02T01:36:26.685Z,50.877163
2022-10-02T01:37:26.647Z,50.877144
2022-10-02T01:38:26.633Z,50.877151
2022-10-02T01:39:26.631Z,50.877155
2022-10-02T01:40:26.625Z,50.877178
2022-10-02T01:41:26.617Z,50.877148
2022-10-02T01:42:26.586Z,50.877174
2022-10-02T01:43:26.607Z,50.877201
2022-10-02T01:44:26.576Z,50.877159
2022-10-02T01:45:26.604Z,50.877144
2022-10-02T01:46:26.572Z,50.877163
2022-10-02T01:47:26.556Z,50.877193
2022-10-02T01:48:26.537Z,50.877144
2022-10-02T01:49:26.538Z,50.877159
2022-10-02T01:50:26.519Z,50.877110
2022-10-02T01:51:26.521Z,50.877136
2022-10-02T01:52:26.486Z,50.877167
2022-10-02T01:53:26.536Z,50.877151
2022-10-02T01:54:26.481Z,50.877155
2022-10-02T01:55:26.469Z,50.877171
2022-10-02T01:56:26.460Z,50.877159
2022-10-02T01:57:26.439Z,50.877174
2022-10-02T01:58:26.443Z,50.877243
2022-10-02T01:59:26.423Z,50.877262
2022-10-02T02:00:26.448Z,50.877247
2022-10-02T02:01:26.451Z,50.877193
2022-10-02T02:02:26.463Z,50.877163
2022-10-02T02:03:26.380Z,50.877209
2022-10-02T02:04:26.385Z,50.877213
2022-10-02T02:05:26.362Z,50.877274
2022-10-02T02:06:26.352Z,50.877258
2022-10-02T02:07:26.355Z,50.877167
2022-10-02T02:08:26.353Z,50.877205
2022-10-02T02:09:26.339Z,50.877171
2022-10-02T02:10:26.321Z,50.877144
2022-10-02T02:11:26.302Z,50.877140
2022-10-02T02:12:26.306Z,50.877125
2022-10-02T02:13:26.298Z,50.877060
2022-10-02T02:14:26.292Z,50.877052
2022-10-02T02:15:26.268Z,50.877079
2022-10-02T02:16:58.190Z,50.877148
2022-10-02T02:17:26.250Z,50.877140
2022-10-02T02:18:26.248Z,50.877193
2022-10-02T02:19:26.278Z,50.877232
2022-10-02T02:20:26.259Z,50.877174
2022-10-02T02:21:26.223Z,50.877125
2022-10-02T02:22:26.221Z,50.877277
2022-10-02T02:23:26.221Z,50.877335
2022-10-02T02:24:26.181Z,50.877285
2022-10-02T02:25:26.162Z,50.877266
2022-10-02T02:26:26.157Z,50.877213
2022-10-02T02:27:26.148Z,50.877281
2022-10-02T02:28:26.230Z,50.877285
2022-10-02T02:29:26.127Z,50.877171
2022-10-02T02:30:26.133Z,50.877151
2022-10-02T02:31:26.133Z,50.877167
2022-10-02T02:32:26.117Z,50.877186
2022-10-02T02:33:26.097Z,50.877190
2022-10-02T02:34:26.101Z,50.877159
2022-10-02T02:35:26.073Z,50.877171
2022-10-02T02:36:26.070Z,50.877163
2022-10-02T02:37:26.074Z,50.877182
2022-10-02T02:38:26.042Z,50.877174
2022-10-02T02:39:26.037Z,50.877182
2022-10-02T02:40:26.029Z,50.877182
2022-10-02T02:41:26.015Z,50.877174
2022-10-02T02:42:26.463Z,50.877163
2022-10-02T02:43:26.048Z,50.877163
2022-10-02T02:44:25.981Z,50.877163
2022-10-02T02:45:26.045Z,50.877163
2022-10-02T02:46:25.961Z,50.877148
2022-10-02T02:47:25.959Z,50.877148
2022-10-02T02:48:25.969Z,50.877167
2022-10-02T02:49:25.925Z,50.877136
2022-10-02T02:50:25.937Z,50.877148
2022-10-02T02:51:25.935Z,50.877140
2022-10-02T02:52:25.909Z,50.877151
2022-10-02T02:53:25.908Z,50.877159
2022-10-02T02:54:25.907Z,50.877151
2022-10-02T02:55:25.903Z,50.877163
2022-10-02T02:56:25.860Z,50.877174
2022-10-02T02:57:25.862Z,50.877113
2022-10-02T02:58:25.869Z,50.877174
2022-10-02T02:59:25.874Z,50.877148
2022-10-02T03:00:25.829Z,50.877129
2022-10-02T03:01:25.905Z,50.877148
2022-10-02T03:02:25.889Z,50.877159
2022-10-02T03:03:25.794Z,50.877155
2022-10-02T03:04:25.792Z,50.877132
2022-10-02T03:05:25.800Z,50.877167
2022-10-02T03:06:25.774Z,50.877163
2022-10-02T03:07:25.758Z,50.877171
2022-10-02T03:08:25.739Z,50.877155
2022-10-02T03:09:25.735Z,50.877174
2022-10-02T03:10:25.756Z,50.877144
2022-10-02T03:11:25.717Z,50.877163
2022-10-02T03:12:25.762Z,50.877178
2022-10-02T03:13:25.721Z,50.877140
2022-10-02T03:14:25.701Z,50.877193
2022-10-02T03:15:25.685Z,50.877209
2022-10-02T03:16:25.688Z,50.877201
2022-10-02T03:17:25.690Z,50.877167
2022-10-02T03:18:25.663Z,50.877117
2022-10-02T03:19:25.637Z,50.877117
2022-10-02T03:20:25.637Z,50.877144
2022-10-02T03:21:25.626Z,50.877113
2022-10-02T03:22:25.618Z,50.877132
2022-10-02T03:23:25.621Z,50.877174
2022-10-02T03:24:25.601Z,50.877171
2022-10-02T03:25:25.584Z,50.877216
2022-10-02T03:26:25.587Z,50.877213
2022-10-02T03:27:25.575Z,50.877216
2022-10-02T03:28:50.545Z,50.877213
2022-10-02T03:29:27.560Z,50.877205
2022-10-02T03:30:25.537Z,50.877197
2022-10-02T03:31:25.589Z,50.877205
2022-10-02T03:32:25.531Z,50.877224
2022-10-02T03:33:25.532Z,50.877213
2022-10-02T03:34:25.495Z,50.877213
2022-10-02T03:35:25.514Z,50.877205
2022-10-02T03:36:25.474Z,50.877216
2022-10-02T03:37:25.493Z,50.877220
2022-10-02T03:38:25.462Z,50.877224
2022-10-02T03:39:26.249Z,50.877224
2022-10-02T03:40:25.453Z,50.877193
2022-10-02T03:41:25.462Z,50.877220
2022-10-02T03:42:25.419Z,50.877201
2022-10-02T03:43:25.407Z,50.877220
2022-10-02T03:44:25.422Z,50.877178
2022-10-02T03:45:49.463Z,50.877178
2022-10-02T03:46:27.412Z,50.877171
2022-10-02T03:47:25.411Z,50.877121
2022-10-02T03:48:25.366Z,50.877190
2022-10-02T03:49:25.364Z,50.877171
2022-10-02T03:50:25.340Z,50.877190
2022-10-02T03:51:25.378Z,50.877216
2022-10-02T03:52:25.336Z,50.877216
2022-10-02T03:53:25.338Z,50.877235
2022-10-02T03:54:25.303Z,50.877216
2022-10-02T03:55:25.308Z,50.877224
2022-10-02T03:56:25.296Z,50.877239
2022-10-02T03:57:25.291Z,50.877209
2022-10-02T03:58:25.281Z,50.877224
2022-10-02T03:59:25.254Z,50.877224
2022-10-02T04:00:25.253Z,50.877239
2022-10-02T04:01:25.272Z,50.877247
2022-10-02T04:02:25.218Z,50.877239
2022-10-02T04:03:26.321Z,50.877224
2022-10-02T04:04:25.216Z,50.877243
2022-10-02T04:05:25.222Z,50.877239
2022-10-02T04:06:25.191Z,50.877232
2022-10-02T04:07:25.194Z,50.877235
2022-10-02T04:08:25.198Z,50.877235
2022-10-02T04:09:25.194Z,50.877232
2022-10-02T04:10:25.165Z,50.877232
2022-10-02T04:11:25.158Z,50.877224
2022-10-02T04:12:25.140Z,50.877239
2022-10-02T04:13:25.123Z,50.877235
2022-10-02T04:14:25.131Z,50.877228
2022-10-02T04:15:25.113Z,50.877235
2022-10-02T04:16:25.198Z,50.877216
2022-10-02T04:17:25.098Z,50.877224
2022-10-02T04:18:25.077Z,50.877216
2022-10-02T04:19:25.084Z,50.877251
2022-10-02T04:20:25.050Z,50.877247
2022-10-02T04:21:25.060Z,50.877258
2022-10-02T04:22:25.032Z,50.877251
2022-10-02T04:23:25.022Z,50.877258
2022-10-02T04:24:25.007Z,50.877270
2022-10-02T04:25:25.026Z,50.877296
2022-10-02T04:26:24.996Z,50.877289
2022-10-02T04:27:25.002Z,50.877285
2022-10-02T04:28:25.025Z,50.877224
2022-10-02T04:29:24.974Z,50.877239
2022-10-02T04:30:24.983Z,50.877243
2022-10-02T04:31:24.979Z,50.877228
2022-10-02T04:32:24.927Z,50.877205
2022-10-02T04:33:24.931Z,50.877251
2022-10-02T04:34:24.916Z,50.877289
2022-10-02T04:35:24.912Z,50.877289
2022-10-02T04:36:24.924Z,50.877254
2022-10-02T04:37:24.869Z,50.877258
2022-10-02T04:38:24.864Z,50.877247
2022-10-02T04:39:25.873Z,50.877266
2022-10-02T04:40:24.873Z,50.877239
2022-10-02T04:41:24.900Z,50.877247
2022-10-02T04:42:24.820Z,50.877251
2022-10-02T04:43:24.816Z,50.877277
2022-10-02T04:44:24.810Z,50.877266
2022-10-02T04:45:24.880Z,50.877274
2022-10-02T04:46:24.807Z,50.877289
2022-10-02T04:47:24.800Z,50.877251
2022-10-02T04:48:24.766Z,50.877312
2022-10-02T04:49:24.794Z,50.877277
2022-10-02T04:50:24.756Z,50.877262
2022-10-02T04:51:24.744Z,50.877251
2022-10-02T04:52:24.733Z,50.877197
2022-10-02T04:53:24.717Z,50.877193
2022-10-02T04:54:24.750Z,50.877201
2022-10-02T04:55:24.711Z,50.877205
2022-10-02T04:56:24.679Z,50.877209
2022-10-02T04:57:25.694Z,50.877216
2022-10-02T04:58:24.682Z,50.877216
2022-10-02T04:59:24.653Z,50.877224
2022-10-02T05:00:24.661Z,50.877213
2022-10-02T05:01:24.640Z,50.877220
2022-10-02T05:02:24.697Z,50.877235
2022-10-02T05:03:24.615Z,50.877228
2022-10-02T05:04:24.619Z,50.877220
2022-10-02T05:05:24.620Z,50.877209
2022-10-02T05:06:24.594Z,50.877201
2022-10-02T05:07:24.606Z,50.877190
2022-10-02T05:08:43.469Z,50.877190
2022-10-02T05:09:28.318Z,50.877197
2022-10-02T05:10:25.594Z,50.877182
2022-10-02T05:11:24.549Z,50.877193
2022-10-02T05:12:24.543Z,50.877197
2022-10-02T05:13:24.540Z,50.877205
2022-10-02T05:14:24.509Z,50.877190
2022-10-02T05:15:24.525Z,50.877186
2022-10-02T05:16:24.537Z,50.877197
2022-10-02T05:17:24.504Z,50.877216
2022-10-02T05:18:24.487Z,50.877216
2022-10-02T05:19:24.487Z,50.877220
2022-10-02T05:20:24.450Z,50.877209
2022-10-02T05:21:24.440Z,50.877216
2022-10-02T05:22:24.420Z,50.877193
2022-10-02T05:23:43.311Z,50.877209
2022-10-02T05:24:24.439Z,50.877167
2022-10-02T05:25:24.405Z,50.877186
2022-10-02T05:26:24.393Z,50.877193
2022-10-02T05:27:24.369Z,50.877209
2022-10-02T05:28:24.436Z,50.877205
2022-10-02T05:29:24.378Z,50.877209
2022-10-02T05:30:24.380Z,50.877193
2022-10-02T05:31:24.399Z,50.877197
2022-10-02T05:32:24.357Z,50.877182
2022-10-02T05:33:24.332Z,50.877193
2022-10-02T05:34:24.308Z,50.877159
2022-10-02T05:35:24.359Z,50.877178
2022-10-02T05:36:43.186Z,50.877140
2022-10-02T05:37:24.300Z,50.877182
2022-10-02T05:38:24.281Z,50.877182
2022-10-02T05:39:24.268Z,50.877197
2022-10-02T05:40:24.247Z,50.877178
2022-10-02T05:41:24.275Z,50.877174
2022-10-02T05:42:24.311Z,50.877186
2022-10-02T05:43:24.215Z,50.877178
2022-10-02T05:44:24.236Z,50.877190
2022-10-02T05:45:24.210Z,50.877193
2022-10-02T05:46:24.292Z,50.877167
2022-10-02T05:47:24.181Z,50.877174
2022-10-02T05:48:24.165Z,50.877190
2022-10-02T05:49:24.180Z,50.877148
2022-10-02T05:50:24.154Z,50.877174
2022-10-02T05:51:24.146Z,50.877182
2022-10-02T05:52:24.122Z,50.877190
2022-10-02T05:53:24.120Z,50.877182
2022-10-02T05:54:24.112Z,50.877197
2022-10-02T05:55:43.031Z,50.877186
2022-10-02T05:56:24.084Z,50.877190
2022-10-02T05:57:42.972Z,50.877209
2022-10-02T05:58:24.082Z,50.877209
2022-10-02T05:59:24.084Z,50.877205
2022-10-02T06:00:24.090Z,50.877197
2022-10-02T06:01:42.945Z,50.877178
2022-10-02T06:02:24.115Z,50.877140
2022-10-02T06:03:24.036Z,50.877171
2022-10-02T06:04:24.006Z,50.877182
2022-10-02T06:05:23.998Z,50.877174
2022-10-02T06:06:23.986Z,50.877186
2022-10-02T06:07:24.014Z,50.877121
2022-10-02T06:08:23.963Z,50.877121
2022-10-02T06:09:23.963Z,50.877201
2022-10-02T06:10:23.969Z,50.877213
2022-10-02T06:11:23.922Z,50.877193
2022-10-02T06:12:23.936Z,50.877174
2022-10-02T06:13:23.938Z,50.877186
2022-10-02T06:14:23.901Z,50.877182
2022-10-02T06:15:23.915Z,50.877171
2022-10-02T06:16:23.913Z,50.877186
2022-10-02T06:17:23.873Z,50.877174
2022-10-02T06:18:23.883Z,50.877178
2022-10-02T06:19:23.856Z,50.877201
2022-10-02T06:20:23.875Z,50.877197
2022-10-02T06:21:24.833Z,50.877182
2022-10-02T06:22:23.827Z,50.877197
2022-10-02T06:23:23.829Z,50.877209
2022-10-02T06:24:23.814Z,50.877159
2022-10-02T06:25:23.830Z,50.877201
2022-10-02T06:26:23.776Z,50.877193
2022-10-02T06:27:24.785Z,50.877163
2022-10-02T06:28:23.857Z,50.877155
2022-10-02T06:29:27.041Z,50.877171
2022-10-02T06:30:24.774Z,50.877190
2022-10-02T06:31:23.771Z,50.877151
2022-10-02T06:32:23.749Z,50.877136
2022-10-02T06:33:23.730Z,50.877159
2022-10-02T06:34:23.710Z,50.877136
2022-10-02T06:35:23.730Z,50.877163
2022-10-02T06:36:23.682Z,50.877167
2022-10-02T06:37:23.706Z,50.877167
2022-10-02T06:38:23.670Z,50.877159
2022-10-02T06:39:23.690Z,50.877136
2022-10-02T06:40:23.641Z,50.877140
2022-10-02T06:41:23.677Z,50.877151
2022-10-02T06:42:23.632Z,50.877163
2022-10-02T06:43:23.620Z,50.877178
2022-10-02T06:44:23.612Z,50.877209
2022-10-02T06:45:23.644Z,50.877174
2022-10-02T06:46:23.605Z,50.877144
2022-10-02T06:47:23.594Z,50.877163
2022-10-02T06:48:23.579Z,50.877174
2022-10-02T06:49:23.589Z,50.877182
2022-10-02T06:50:23.577Z,50.877171
2022-10-02T06:51:23.547Z,50.877163
2022-10-02T06:52:23.533Z,50.877171
2022-10-02T06:53:23.535Z,50.877186
2022-10-02T06:54:23.507Z,50.877155
2022-10-02T06:55:23.520Z,50.877174
2022-10-02T06:56:23.502Z,50.877182
2022-10-02T06:57:23.488Z,50.877190
2022-10-02T06:58:23.460Z,50.877174
2022-10-02T06:59:23.466Z,50.877167
2022-10-02T07:00:23.499Z,50.877159
2022-10-02T07:01:23.529Z,50.877171
2022-10-02T07:02:23.515Z,50.877155
2022-10-02T07:03:23.419Z,50.877182
2022-10-02T07:04:23.396Z,50.877193
2022-10-02T07:05:23.407Z,50.877178
2022-10-02T07:06:23.410Z,50.877159
2022-10-02T07:07:23.400Z,50.877193
2022-10-02T07:08:23.382Z,50.877132
2022-10-02T07:09:23.362Z,50.877148
2022-10-02T07:10:23.392Z,50.877167
2022-10-02T07:11:23.344Z,50.877167
2022-10-02T07:12:23.340Z,50.877075
2022-10-02T07:13:23.326Z,50.877125
2022-10-02T07:14:23.342Z,50.877121
2022-10-02T07:15:23.313Z,50.877155
2022-10-02T07:16:23.367Z,50.877193
2022-10-02T07:17:23.315Z,50.877182
2022-10-02T07:18:23.269Z,50.877186
2022-10-02T07:19:23.262Z,50.877159
2022-10-02T07:20:23.316Z,50.877151
2022-10-02T07:21:23.252Z,50.877171
2022-10-02T07:22:43.564Z,50.877174
2022-10-02T07:23:25.244Z,50.877140
2022-10-02T07:24:23.217Z,50.877167
2022-10-02T07:25:23.218Z,50.877106
2022-10-02T07:26:23.196Z,50.877098
2022-10-02T07:27:23.185Z,50.877151
2022-10-02T07:28:23.231Z,50.877167
2022-10-02T07:29:23.161Z,50.877148
2022-10-02T07:30:23.169Z,50.877174
2022-10-02T07:31:23.227Z,50.877102
2022-10-02T07:32:23.151Z,50.877087
2022-10-02T07:33:26.577Z,50.877144
2022-10-02T07:34:24.136Z,50.877216
2022-10-02T07:35:23.109Z,50.877132
2022-10-02T07:36:23.097Z,50.877144
2022-10-02T07:37:23.100Z,50.877132
2022-10-02T07:38:23.068Z,50.877144
2022-10-02T07:39:23.065Z,50.877113
2022-10-02T07:40:23.059Z,50.877087
2022-10-02T07:41:23.048Z,50.877148
2022-10-02T07:42:23.081Z,50.877167
2022-10-02T07:43:23.025Z,50.877140
2022-10-02T07:44:23.050Z,50.877132
2022-10-02T07:45:23.042Z,50.877220
2022-10-02T07:46:22.980Z,50.877213
2022-10-02T07:47:22.982Z,50.877193
2022-10-02T07:48:22.984Z,50.877232
2022-10-02T07:49:22.994Z,50.877155
2022-10-02T07:50:22.953Z,50.877129
2022-10-02T07:51:22.941Z,50.877171
2022-10-02T07:52:22.934Z,50.877155
2022-10-02T07:53:22.920Z,50.877232
2022-10-02T07:54:22.921Z,50.877190
2022-10-02T07:55:22.940Z,50.877098
2022-10-02T07:56:22.975Z,50.877144
2022-10-02T07:57:22.890Z,50.877113
2022-10-02T07:58:22.867Z,50.877110
2022-10-02T07:59:22.864Z,50.877148
2022-10-02T08:00:22.868Z,50.877029
2022-10-02T08:01:22.853Z,50.877079
2022-10-02T08:02:22.908Z,50.877075
2022-10-02T08:03:22.953Z,50.877064
2022-10-02T08:04:22.808Z,50.877022
2022-10-02T08:05:22.833Z,50.876991
2022-10-02T08:06:22.797Z,50.877014
2022-10-02T08:07:22.786Z,50.876953
2022-10-02T08:08:22.811Z,50.877029
2022-10-02T08:09:22.761Z,50.877098
2022-10-02T08:10:22.767Z,50.877163
2022-10-02T08:11:22.775Z,50.877182
2022-10-02T08:12:22.775Z,50.877140
2022-10-02T08:13:22.835Z,50.877151
2022-10-02T08:14:22.735Z,50.877140
2022-10-02T08:15:22.707Z,50.877098
2022-10-02T08:16:29.685Z,50.877113
2022-10-02T08:17:22.683Z,50.877144
2022-10-02T08:18:34.297Z,50.877117
2022-10-02T08:19:24.678Z,50.877136
2022-10-02T08:20:25.367Z,50.877144
2022-10-02T08:21:22.669Z,50.877129
2022-10-02T08:22:22.633Z,50.877132
2022-10-02T08:23:22.624Z,50.877144
2022-10-02T08:24:22.629Z,50.877182
2022-10-02T08:25:22.604Z,50.877155
2022-10-02T08:26:23.592Z,50.877171
2022-10-02T08:27:22.578Z,50.877159
2022-10-02T08:28:22.615Z,50.877171
2022-10-02T08:29:22.576Z,50.877167
2022-10-02T08:30:22.559Z,50.877174
2022-10-02T08:31:22.595Z,50.877151
2022-10-02T08:32:22.546Z,50.877174
2022-10-02T08:33:22.537Z,50.877182
2022-10-02T08:34:22.513Z,50.877197
2022-10-02T08:35:22.500Z,50.877197
2022-10-02T08:36:22.484Z,50.877197
2022-10-02T08:37:22.476Z,50.877220
2022-10-02T08:38:22.480Z,50.877213
2022-10-02T08:39:22.488Z,50.877190
2022-10-02T08:40:22.456Z,50.877209
2022-10-02T08:41:22.459Z,50.877205
2022-10-02T08:42:22.471Z,50.877205
2022-10-02T08:43:22.430Z,50.877197
2022-10-02T08:44:22.415Z,50.877209
2022-10-02T08:45:22.424Z,50.877140
2022-10-02T08:46:22.404Z,50.877110
2022-10-02T08:47:22.412Z,50.877193
2022-10-02T08:48:22.385Z,50.877178
2022-10-02T08:49:22.370Z,50.877201
2022-10-02T08:50:22.369Z,50.877243
2022-10-02T08:51:22.352Z,50.877213
2022-10-02T08:52:22.337Z,50.877182
2022-10-02T08:53:22.347Z,50.877163
2022-10-02T08:54:22.317Z,50.877148
2022-10-02T08:55:22.306Z,50.877087
2022-10-02T08:56:22.308Z,50.877132
2022-10-02T08:57:22.284Z,50.877136
2022-10-02T08:58:22.278Z,50.877193
2022-10-02T08:59:22.283Z,50.877132
2022-10-02T09:00:22.262Z,50.877201
2022-10-02T09:01:22.304Z,50.877155
2022-10-02T09:02:22.310Z,50.877110
2022-10-02T09:03:22.263Z,50.877140
2022-10-02T09:04:22.229Z,50.877182
2022-10-02T09:05:22.212Z,50.877186
2022-10-02T09:06:22.201Z,50.877186
2022-10-02T09:07:27.366Z,50.877167
2022-10-02T09:08:24.195Z,50.877205
2022-10-02T09:09:22.170Z,50.877182
2022-10-02T09:10:22.161Z,50.877171
2022-10-02T09:11:22.154Z,50.877174
2022-10-02T09:12:22.147Z,50.877209
2022-10-02T09:13:22.153Z,50.877190
2022-10-02T09:14:22.138Z,50.877163
2022-10-02T09:15:22.108Z,50.877167
2022-10-02T09:16:22.162Z,50.877163
2022-10-02T09:17:22.098Z,50.877171
2022-10-02T09:18:22.090Z,50.877171
2022-10-02T09:19:22.095Z,50.877201
2022-10-02T09:20:22.060Z,50.877167
2022-10-02T09:21:22.056Z,50.877136
2022-10-02T09:22:22.072Z,50.877144
2022-10-02T09:23:22.029Z,50.877209
2022-10-02T09:24:22.025Z,50.877167
2022-10-02T09:25:22.013Z,50.877140
2022-10-02T09:26:21.992Z,50.877151
2022-10-02T09:27:21.978Z,50.877171
2022-10-02T09:28:22.051Z,50.877186
2022-10-02T09:29:21.982Z,50.877182
2022-10-02T09:30:21.952Z,50.877171
2022-10-02T09:31:23.004Z,50.877167
2022-10-02T09:32:22.964Z,50.877159
2022-10-02T09:33:21.924Z,50.877182
2022-10-02T09:34:21.916Z,50.877182
2022-10-02T09:35:21.910Z,50.877193
2022-10-02T09:36:21.895Z,50.877193
2022-10-02T09:37:21.902Z,50.877186
2022-10-02T09:38:21.878Z,50.877197
2022-10-02T09:39:21.859Z,50.877151
2022-10-02T09:40:21.855Z,50.877159
2022-10-02T09:41:21.851Z,50.877155
2022-10-02T09:42:21.857Z,50.877171
2022-10-02T09:43:21.823Z,50.877178
2022-10-02T09:44:21.825Z,50.877186
2022-10-02T09:45:21.803Z,50.877159
2022-10-02T09:46:21.783Z,50.877197
2022-10-02T09:47:21.801Z,50.877087
2022-10-02T09:48:21.777Z,50.877056
2022-10-02T09:49:21.759Z,50.877190
2022-10-02T09:50:21.759Z,50.877209
2022-10-02T09:51:21.955Z,50.877159
2022-10-02T09:52:21.738Z,50.877205
2022-10-02T09:53:21.724Z,50.877190
2022-10-02T09:54:21.722Z,50.877140
2022-10-02T09:55:21.708Z,50.877075
2022-10-02T09:56:21.713Z,50.877193
2022-10-02T09:57:21.683Z,50.877163
2022-10-02T09:58:21.678Z,50.877186
2022-10-02T09:59:21.661Z,50.877148
2022-10-02T10:00:21.649Z,50.877182
2022-10-02T10:01:21.673Z,50.877243
2022-10-02T10:02:25.563Z,50.877224
2022-10-02T10:03:22.650Z,50.877167
2022-10-02T10:04:21.626Z,50.877178
2022-10-02T10:05:21.599Z,50.877201
2022-10-02T10:06:21.607Z,50.877125
2022-10-02T10:07:21.597Z,50.877155
2022-10-02T10:08:21.573Z,50.877182
2022-10-02T10:09:21.583Z,50.877174
2022-10-02T10:10:21.564Z,50.877144
2022-10-02T10:11:21.553Z,50.877159
2022-10-02T10:12:21.533Z,50.877197
2022-10-02T10:13:21.519Z,50.877144
2022-10-02T10:14:21.512Z,50.877182
2022-10-02T10:15:21.527Z,50.877216
2022-10-02T10:16:21.588Z,50.877216
2022-10-02T10:17:21.493Z,50.877125
2022-10-02T10:18:21.474Z,50.877174
2022-10-02T10:19:21.472Z,50.877182
2022-10-02T10:20:21.462Z,50.877178
2022-10-02T10:21:21.473Z,50.877163
2022-10-02T10:22:21.445Z,50.877182
2022-10-02T10:23:21.427Z,50.877129
2022-10-02T10:24:21.427Z,50.877205
2022-10-02T10:25:21.406Z,50.877182
2022-10-02T10:26:21.419Z,50.877209
2022-10-02T10:27:21.382Z,50.877174
2022-10-02T10:28:21.429Z,50.877182
2022-10-02T10:29:21.380Z,50.877197
2022-10-02T10:30:21.365Z,50.877155
2022-10-02T10:31:21.390Z,50.877232
2022-10-02T10:32:21.350Z,50.877228
2022-10-02T10:33:21.332Z,50.877136
2022-10-02T10:34:21.333Z,50.877239
2022-10-02T10:35:21.308Z,50.877274
2022-10-02T10:36:21.293Z,50.877216
2022-10-02T10:37:21.293Z,50.877174
2022-10-02T10:38:21.287Z,50.877186
2022-10-02T10:39:21.265Z,50.877197
2022-10-02T10:40:21.252Z,50.877182
2022-10-02T10:41:21.239Z,50.877220
2022-10-02T10:42:21.230Z,50.877186
2022-10-02T10:43:21.234Z,50.877151
2022-10-02T10:44:21.205Z,50.877129
2022-10-02T10:45:21.232Z,50.877136
2022-10-02T10:46:21.262Z,50.877102
2022-10-02T10:47:21.181Z,50.877136
2022-10-02T10:48:21.178Z,50.877140
2022-10-02T10:49:21.198Z,50.877159
2022-10-02T10:50:21.160Z,50.877247
2022-10-02T10:51:21.145Z,50.877178
2022-10-02T10:52:21.127Z,50.877193
2022-10-02T10:53:21.127Z,50.877209
2022-10-02T10:54:21.116Z,50.877205
2022-10-02T10:55:21.112Z,50.877197
2022-10-02T10:56:21.081Z,50.877209
2022-10-02T10:57:21.074Z,50.877201
2022-10-02T10:58:21.060Z,50.877201
2022-10-02T10:59:25.137Z,50.877136
2022-10-02T11:00:22.047Z,50.877045
2022-10-02T11:01:21.171Z,50.877117
2022-10-02T11:02:21.116Z,50.877117
2022-10-02T11:03:21.029Z,50.877117
2022-10-02T11:04:21.057Z,50.877117
2022-10-02T11:05:20.989Z,50.877117
2022-10-02T11:06:20.981Z,50.877132
2022-10-02T11:07:20.972Z,50.877201
2022-10-02T11:08:20.955Z,50.877167
2022-10-02T11:09:21.962Z,50.877136
2022-10-02T11:10:20.975Z,50.877144
2022-10-02T11:11:20.937Z,50.877190
2022-10-02T11:12:20.923Z,50.877197
2022-10-02T11:13:20.914Z,50.877121
2022-10-02T11:14:20.909Z,50.877190
2022-10-02T11:15:20.921Z,50.877213
2022-10-02T11:16:20.956Z,50.877125
2022-10-02T11:17:20.883Z,50.877148
2022-10-02T11:18:20.865Z,50.877140
2022-10-02T11:19:21.758Z,50.877167
2022-10-02T11:20:21.853Z,50.877155
2022-10-02T11:21:20.872Z,50.877148
2022-10-02T11:22:20.830Z,50.877182
2022-10-02T11:23:20.825Z,50.877174
2022-10-02T11:24:20.807Z,50.877182